Missouri City, Texas
Current Conditions -  °F | °C
As of 1:53 AM on Saturday 25 Oct 2014 (Local Time) from KSGR Reporting Station
Clear Clear  
Wind Chill: 60°   Ceiling: Unl
Heat Index: 60°   Visibility: 9mi
Dew Point: 57°   Wind: 0mph
Humidity: 90%   Direction: NA
Pressure: 30.13"   Gusts: NA
Location:  29.61°N, 95.53°W
Report Text: KSGR 250653Z AUTO 00000KT 9SM CLR 16/14 A3013 RMK AO2 SLP203 T01560139
Loading
Personal Weather Stations






























Interactive Weather Map New forecast layout! Learn more

10-Day Weather Forecast

Advertisements
Track Severe Weather on mobile